| time (UTC) | temp C | wind direction | speed KPH | gust KPH | rain 1hr cm | rain 24hr cm | rain mn cm | humidity % | barometer mb |
| 20260906235001 | -17 | 338 | 0.0 | 0.0 | 0.00 | 0.23 | 0.23 | 1014.0 | |
| 20260906234500 | -17 | 325 | 0.0 | 0.0 | 0.00 | 0.23 | 0.23 | 1014.2 | |
| 20260906233955 | -17 | 305 | 0.0 | 0.0 | 0.00 | 0.23 | 0.23 | 1014.2 | |
| 20260906233455 | -17 | 308 | 0.0 | 0.0 | 0.00 | 0.23 | 0.23 | 1014.3 | |
| 20260906232954 | -17 | 330 | 0.0 | 0.0 | 0.00 | 0.23 | 0.23 | 1014.3 | |
| 20260906232449 | -17 | 295 | 0.0 | 0.0 | 0.00 | 0.23 | 0.23 | 1014.1 | |
| 20260906231944 | -17 | 315 | 0.0 | 0.0 | 0.00 | 0.23 | 0.23 | 1014.0 | |
| 20260906231439 | -17 | 337 | 0.0 | 0.0 | 0.00 | 0.23 | 0.23 | 1014.3 | |
| 20260906230939 | 17 | 0 | 0.0 | 0.0 | 0.00 | 0.23 | 0.23 | 81 | 1014.4 |
| 20260906230433 | -17 | 304 | 0.0 | 0.0 | 0.00 | 0.23 | 0.23 | 1014.4 | |
| 20260906225932 | -17 | 325 | 0.0 | 0.0 | 0.00 | 0.23 | 0.23 | 1014.3 | |
| 20260906225427 | -17 | 289 | 0.0 | 0.0 | 0.00 | 0.23 | 0.23 | 1014.3 | |
| 20260906224923 | -17 | 325 | 0.0 | 0.0 | 0.00 | 0.23 | 0.23 | 1014.3 | |
| 20260906224419 | -17 | 298 | 0.0 | 0.0 | 0.00 | 0.23 | 0.23 | 1014.5 | |
| 20260906223915 | -17 | 355 | 0.0 | 0.0 | 0.00 | 0.23 | 0.23 | 1014.3 | |
| 20260906223411 | -17 | 324 | 0.0 | 0.0 | 0.00 | 0.23 | 0.23 | 1014.4 | |
| 20260906222909 | -17 | 327 | 0.0 | 0.0 | 0.00 | 0.23 | 0.23 | 1014.3 | |
| 20260906222409 | -17 | 325 | 0.0 | 0.0 | 0.00 | 0.23 | 0.23 | 1014.8 | |
| 20260906221906 | -17 | 311 | 0.0 | 0.0 | 0.00 | 0.23 | 0.23 | 1014.7 | |
| 20260906221405 | 16 | 281 | 0.0 | 0.0 | 0.00 | 0.23 | 0.23 | 81 | 1014.6 |
| 20260906220901 | 16 | 286 | 0.0 | 0.0 | 0.00 | 0.23 | 0.23 | 79 | 1014.8 |
| 20260906220356 | 16 | 289 | 0.0 | 0.0 | 0.00 | 0.23 | 0.23 | 80 | 1014.9 |
| 20260906215855 | 16 | 294 | 0.0 | 0.0 | 0.00 | 0.23 | 0.23 | 79 | 1014.8 |
| 20260906215350 | 16 | 286 | 0.0 | 0.0 | 0.00 | 0.23 | 0.23 | 80 | 1014.9 |
| 20260906214848 | 16 | 273 | 0.0 | 0.0 | 0.00 | 0.23 | 0.23 | 79 | 1014.9 |
| 20260906214348 | 16 | 268 | 0.0 | 0.0 | 0.00 | 0.23 | 0.23 | 79 | 1015.1 |
| 20260906213847 | 16 | 248 | 0.0 | 0.0 | 0.00 | 0.23 | 0.23 | 79 | 1014.7 |
| 20260906213342 | -17 | 251 | 0.0 | 0.0 | 0.00 | 0.23 | 0.23 | 1015.1 | |
| 20260906212839 | -17 | 248 | 0.0 | 0.0 | 0.00 | 0.23 | 0.23 | 1014.7 | |
| 20260906212335 | -17 | 249 | 0.0 | 0.0 | 0.00 | 0.23 | 0.23 | 1014.9 | |
| 20260906211834 | -17 | 241 | 0.0 | 0.0 | 0.00 | 0.23 | 0.23 | 1014.8 | |
| 20260906211330 | -17 | 230 | 0.0 | 0.0 | 0.00 | 0.23 | 0.23 | 1014.7 | |
| 20260906210825 | -17 | 225 | 0.0 | 0.0 | 0.00 | 0.23 | 0.23 | 1014.9 | |
| 20260906210324 | -17 | 201 | 0.0 | 0.0 | 0.00 | 0.23 | 0.23 | 1014.9 | |
| 20260906205819 | -17 | 192 | 0.0 | 0.0 | 0.00 | 0.23 | 0.23 | 1014.8 | |
| 20260906205316 | -17 | 179 | 0.0 | 0.0 | 0.00 | 0.23 | 0.23 | 1015.1 | |
| 20260906204811 | -17 | 89 | 0.0 | 0.0 | 0.00 | 0.23 | 0.23 | 1014.8 | |
| 20260906204310 | -17 | 175 | 0.0 | 0.0 | 0.00 | 0.23 | 0.23 | 1014.8 | |
| 20260906203809 | -17 | 139 | 0.0 | 0.0 | 0.00 | 0.23 | 0.23 | 1014.9 | |
| 20260906203305 | -17 | 57 | 0.0 | 0.0 | 0.00 | 0.23 | 0.23 | 1014.9 | |
| 20260906202802 | -17 | 82 | 0.0 | 0.0 | 0.00 | 0.23 | 0.23 | 1015.2 | |
| 20260906202301 | -17 | 119 | 0.0 | 0.0 | 0.00 | 0.23 | 0.23 | 1015.1 | |
| 20260906201756 | -17 | 93 | 0.0 | 0.0 | 0.00 | 0.23 | 0.23 | 1014.9 | |
| 20260906201256 | -17 | 90 | 0.0 | 0.0 | 0.00 | 0.23 | 0.23 | 1015.1 | |
| 20260906200752 | -17 | 70 | 0.0 | 0.0 | 0.00 | 0.23 | 0.23 | 1014.9 | |
| 20260906200248 | -17 | 127 | 0.0 | 0.0 | 0.00 | 0.23 | 0.23 | 1015.2 | |
| 20260906195743 | -17 | 116 | 3.2 | 6.4 | 0.00 | 0.23 | 0.23 | 1015.1 | |
| 20260906195239 | -17 | 90 | 0.0 | 0.0 | 0.00 | 0.23 | 0.23 | 1015.4 | |
| 20260906194735 | -17 | 112 | 0.0 | 0.0 | 0.00 | 0.23 | 0.23 | 1015.6 | |
| 20260906194230 | -17 | 59 | 0.0 | 0.0 | 0.00 | 0.23 | 0.23 | 1015.3 | |
| 20260906193725 | -17 | 74 | 0.0 | 3.2 | 0.00 | 0.23 | 0.23 | 1015.4 | |
| 20260906193220 | -17 | 73 | 0.0 | 3.2 | 0.00 | 0.23 | 0.23 | 1015.4 | |
| 20260906192716 | -17 | 65 | 0.0 | 0.0 | 0.00 | 0.23 | 0.23 | 1015.4 | |
| 20260906192215 | -17 | 74 | 1.6 | 3.2 | 0.00 | 0.23 | 0.23 | 1015.5 | |
| 20260906191710 | -17 | 70 | 6.4 | 12.9 | 0.00 | 0.23 | 0.23 | 1015.4 | |
| 20260906191209 | -17 | 58 | 0.0 | 0.0 | 0.00 | 0.23 | 0.23 | 1015.7 | |
| 20260906190704 | -17 | 69 | 3.2 | 3.2 | 0.00 | 0.23 | 0.23 | 1015.6 | |
| 20260906190159 | -17 | 66 | 0.0 | 0.0 | 0.00 | 0.23 | 0.23 | 1015.9 | |
| 20260906185658 | -17 | 85 | 0.0 | 0.0 | 0.00 | 0.23 | 0.23 | 1015.7 | |
| 20260906185157 | -17 | 78 | 0.0 | 1.6 | 0.00 | 0.23 | 0.23 | 1015.8 | |
| 20260906184651 | -17 | 61 | 0.0 | 1.6 | 0.00 | 0.23 | 0.23 | 1015.8 | |
| 20260906184147 | -17 | 66 | 0.0 | 0.0 | 0.00 | 0.23 | 0.23 | 1016.0 | |
| 20260906183642 | -17 | 56 | 0.0 | 0.0 | 0.00 | 0.23 | 0.23 | 1015.5 | |
| 20260906183139 | -17 | 38 | 0.0 | 0.0 | 0.00 | 0.23 | 0.23 | 1015.9 | |
| 20260906182638 | -17 | 61 | 0.0 | 0.0 | 0.00 | 0.23 | 0.23 | 1015.8 | |
| 20260906182135 | -17 | 51 | 0.0 | 1.6 | 0.00 | 0.23 | 0.23 | 1015.8 | |
| 20260906181630 | -17 | 55 | 1.6 | 3.2 | 0.00 | 0.23 | 0.23 | 1015.7 | |
| 20260906181126 | -17 | 73 | 16.1 | 17.7 | 0.00 | 0.23 | 0.23 | 1015.6 | |
| 20260906180621 | -17 | 78 | 3.2 | 4.8 | 0.00 | 0.23 | 0.23 | 1015.6 | |
| 20260906180120 | -17 | 49 | 3.2 | 6.4 | 0.00 | 0.23 | 0.23 | 1015.7 | |
| 20260906175618 | -17 | 25 | 1.6 | 3.2 | 0.00 | 0.23 | 0.23 | 1015.7 | |
| 20260906175114 | -17 | 356 | 3.2 | 6.4 | 0.00 | 0.23 | 0.23 | 1015.7 | |
| 20260906174612 | -17 | 14 | 0.0 | 0.0 | 0.00 | 0.23 | 0.23 | 1016.0 | |
| 20260906174107 | -17 | 5 | 0.0 | 1.6 | 0.00 | 0.23 | 0.23 | 1015.9 | |
| 20260906173601 | -17 | 16 | 0.0 | 0.0 | 0.00 | 0.23 | 0.23 | 1016.4 | |
| 20260906173052 | -17 | 333 | 0.0 | 0.0 | 0.00 | 0.23 | 0.23 | 1016.1 | |
| 20260906172546 | -17 | 339 | 0.0 | 0.0 | 0.00 | 0.23 | 0.23 | 1016.3 | |
| 20260906172042 | -17 | 3 | 1.6 | 3.2 | 0.00 | 0.23 | 0.23 | 1016.5 | |
| 20260906171541 | -17 | 43 | 0.0 | 1.6 | 0.00 | 0.23 | 0.23 | 1016.5 | |
| 20260906171037 | -17 | 17 | 0.0 | 0.0 | 0.00 | 0.23 | 0.23 | 1016.5 | |
| 20260906170533 | -17 | 40 | 1.6 | 3.2 | 0.00 | 0.23 | 0.23 | 1016.6 | |
| 20260906170032 | 13 | 35 | 1.6 | 3.2 | 0.00 | 0.23 | 0.23 | 90 | 1016.0 |
| 20260906165529 | -17 | 51 | 3.2 | 4.8 | 0.00 | 0.23 | 0.23 | 1016.4 | |
| 20260906165024 | -17 | 46 | 0.0 | 0.0 | 0.00 | 0.23 | 0.23 | 1016.4 | |
| 20260906164523 | -17 | 70 | 3.2 | 9.7 | 0.00 | 0.23 | 0.23 | 1016.1 | |
| 20260906164019 | -17 | 10 | 0.0 | 0.0 | 0.00 | 0.23 | 0.23 | 1017.4 | |
| 20260906163514 | 13 | 332 | 0.0 | 0.0 | 0.00 | 0.23 | 0.23 | 91 | 1017.4 |
| 20260906163009 | 13 | 304 | 0.0 | 0.0 | 0.00 | 0.23 | 0.23 | 92 | 1017.4 |
| 20260906162506 | 12 | 306 | 0.0 | 0.0 | 0.00 | 0.23 | 0.23 | 92 | 1017.5 |
| 20260906162002 | 12 | 302 | 0.0 | 0.0 | 0.00 | 0.23 | 0.23 | 93 | 1017.5 |
| 20260906161502 | 12 | 303 | 0.0 | 0.0 | 0.00 | 0.23 | 0.23 | 92 | 1017.6 |
| 20260906161000 | 12 | 313 | 0.0 | 0.0 | 0.00 | 0.23 | 0.23 | 93 | 1017.7 |
| 20260906160454 | 12 | 306 | 0.0 | 0.0 | 0.00 | 0.23 | 0.23 | 93 | 1017.6 |
| 20260906155952 | -17 | 343 | 0.0 | 0.0 | 0.00 | 0.23 | 0.23 | 1017.5 | |
| 20260906155451 | -17 | 319 | 0.0 | 0.0 | 0.00 | 0.23 | 0.23 | 1017.8 | |
| 20260906154947 | -17 | 326 | 0.0 | 0.0 | 0.00 | 0.23 | 0.23 | 1017.7 | |
| 20260906154442 | 12 | 335 | 0.0 | 0.0 | 0.00 | 0.23 | 0.23 | 93 | 1017.5 |
| 20260906153940 | -17 | 312 | 0.0 | 0.0 | 0.00 | 0.23 | 0.23 | 1017.8 | |
| 20260906153439 | -17 | 332 | 0.0 | 0.0 | 0.00 | 0.23 | 0.23 | 1017.7 | |
| 20260906152935 | -17 | 312 | 0.0 | 0.0 | 0.00 | 0.23 | 0.23 | 1018.1 | |
| 20260906152435 | -17 | 314 | 0.0 | 0.0 | 0.00 | 0.23 | 0.23 | 1018.0 | |
| 20260906151934 | -17 | 1 | 0.0 | 0.0 | 0.00 | 0.23 | 0.23 | 1017.9 | |
| 20260906151430 | -17 | 309 | 0.0 | 0.0 | 0.18 | 0.23 | 0.23 | 1018.3 | |
| 20260906150925 | -17 | 298 | 0.0 | 0.0 | 0.18 | 0.23 | 0.23 | 1018.1 | |
| 20260906150420 | -17 | 352 | 0.0 | 0.0 | 0.18 | 0.23 | 0.23 | 1018.2 | |
| 20260906145914 | -17 | 313 | 0.0 | 0.0 | 0.13 | 0.20 | 0.20 | 1018.3 | |
| 20260906145413 | -17 | 300 | 0.0 | 0.0 | 0.13 | 0.20 | 0.20 | 1018.0 | |
| 20260906144908 | -17 | 325 | 1.6 | 9.7 | 0.13 | 0.20 | 0.20 | 1018.1 | |
| 20260906144403 | -17 | 293 | 0.0 | 0.0 | 0.00 | 0.18 | 0.18 | 1018.2 | |
| 20260906143858 | -17 | 304 | 0.0 | 3.2 | 0.00 | 0.18 | 0.18 | 1018.0 | |
| 20260906143354 | -17 | 340 | 0.0 | 0.0 | 0.00 | 0.18 | 0.18 | 1018.2 | |
| 20260906142849 | -17 | 341 | 1.6 | 4.8 | 0.00 | 0.18 | 0.18 | 1018.1 | |
| 20260906142344 | -17 | 310 | 1.6 | 4.8 | 0.18 | 0.18 | 0.18 | 1018.1 | |
| 20260906141844 | -17 | 290 | 0.0 | 0.0 | 0.18 | 0.18 | 0.18 | 1018.2 | |
| 20260906141338 | 12 | 287 | 0.0 | 1.6 | 0.48 | 0.15 | 0.15 | 94 | 1018.3 |
| 20260906140838 | 12 | 286 | 3.2 | 11.3 | 0.79 | 0.15 | 0.15 | 94 | 1018.1 |
| 20260906140333 | 12 | 263 | 1.6 | 4.8 | 0.30 | 0.08 | 0.08 | 92 | 1018.2 |
| 20260906135830 | 12 | 297 | 3.2 | 9.7 | 0.00 | 0.03 | 0.03 | 92 | 1018.1 |
| 20260906135325 | 13 | 291 | 9.7 | 14.5 | 0.00 | 0.03 | 0.03 | 93 | 1017.9 |
| 20260906134821 | 13 | 278 | 1.6 | 1.6 | 0.13 | 0.03 | 0.03 | 92 | 1017.8 |
| 20260906134316 | -17 | 293 | 0.0 | 0.0 | 0.13 | 0.03 | 0.03 | 1017.7 | |
| 20260906133811 | -17 | 296 | 0.0 | 0.0 | 0.00 | 0.00 | 0.00 | 1017.6 | |
| 20260906133307 | 13 | 268 | 0.0 | 0.0 | 0.00 | 0.00 | 0.00 | 91 | 1017.9 |
| 20260906132803 | -17 | 258 | 0.0 | 0.0 | 0.00 | 0.00 | 0.00 | 1018.0 | |
| 20260906132306 | -17 | 256 | 0.0 | 0.0 | 0.00 | 0.00 | 0.00 | 1017.9 | |
| 20260906131758 | -17 | 264 | 0.0 | 0.0 | 0.00 | 0.00 | 0.00 | 1017.8 | |
| 20260906131253 | -17 | 280 | 0.0 | 0.0 | 0.00 | 0.00 | 0.00 | 1017.8 | |
| 20260906130748 | -17 | 288 | 0.0 | 0.0 | 0.00 | 0.00 | 0.00 | 1017.6 | |
| 20260906130244 | -17 | 294 | 0.0 | 0.0 | 0.00 | 0.00 | 0.00 | 1018.0 | |
| 20260906125742 | -17 | 268 | 0.0 | 0.0 | 0.00 | 0.00 | 0.00 | 1018.0 | |
| 20260906125240 | -17 | 302 | 0.0 | 0.0 | 0.00 | 0.00 | 0.00 | 1018.0 | |
| 20260906124735 | -17 | 298 | 0.0 | 0.0 | 0.00 | 0.00 | 0.00 | 1017.8 | |
| 20260906124231 | -17 | 330 | 0.0 | 3.2 | 0.00 | 0.00 | 0.00 | 1017.8 | |
| 20260906123730 | 13 | 350 | 0.0 | 0.0 | 0.00 | 0.00 | 0.00 | 87 | 1018.1 |
| 20260906123225 | 13 | 319 | 0.0 | 0.0 | 0.00 | 0.00 | 0.00 | 87 | 1017.9 |
| 20260906122725 | 13 | 313 | 0.0 | 0.0 | 0.00 | 0.00 | 0.00 | 87 | 1018.0 |
| 20260906122220 | -17 | 308 | 0.0 | 0.0 | 0.00 | 0.00 | 0.00 | 1017.7 | |
| 20260906121717 | -17 | 337 | 0.0 | 0.0 | 0.00 | 0.00 | 0.00 | 1017.7 | |
| 20260906121213 | -17 | 299 | 0.0 | 0.0 | 0.00 | 0.00 | 0.00 | 1017.9 | |
| 20260906120708 | -17 | 294 | 0.0 | 0.0 | 0.00 | 0.00 | 0.00 | 1017.8 | |
| 20260906120205 | -17 | 293 | 0.0 | 0.0 | 0.00 | 0.00 | 0.00 | 1017.6 | |
| 20260906115659 | -17 | 291 | 0.0 | 0.0 | 0.00 | 0.00 | 0.00 | 1017.6 | |
| 20260906115155 | -17 | 289 | 0.0 | 0.0 | 0.00 | 0.00 | 0.00 | 1017.4 | |
| 20260906114653 | -17 | 320 | 0.0 | 0.0 | 0.00 | 0.00 | 0.00 | 1017.5 | |
| 20260906114149 | -17 | 7 | 0.0 | 0.0 | 0.00 | 0.00 | 0.00 | 1017.0 | |
| 20260906113649 | -17 | 34 | 1.6 | 3.2 | 0.00 | 0.00 | 0.00 | 1017.0 | |
| 20260906113149 | -17 | 61 | 3.2 | 3.2 | 0.00 | 0.00 | 0.00 | 1017.2 | |
| 20260906112648 | -17 | 50 | 1.6 | 3.2 | 0.00 | 0.00 | 0.00 | 1017.5 | |
| 20260906112146 | -17 | 42 | 1.6 | 3.2 | 0.00 | 0.00 | 0.00 | 1017.5 | |
| 20260906111645 | -17 | 40 | 1.6 | 3.2 | 0.00 | 0.00 | 0.00 | 1017.2 | |
| 20260906111140 | 13 | 51 | 0.0 | 1.6 | 0.00 | 0.00 | 0.00 | 85 | 1017.5 |
| 20260906110635 | -17 | 35 | 0.0 | 0.0 | 0.00 | 0.00 | 0.00 | 1017.4 | |
| 20260906110130 | -17 | 24 | 0.0 | 0.0 | 0.00 | 0.00 | 0.00 | 1017.4 | |
| 20260906105624 | -17 | 38 | 0.0 | 0.0 | 0.00 | 0.00 | 0.00 | 1017.1 | |
| 20260906105120 | -17 | 29 | 1.6 | 3.2 | 0.00 | 0.00 | 0.00 | 1017.2 | |
| 20260906104620 | -17 | 32 | 0.0 | 0.0 | 0.00 | 0.00 | 0.00 | 1017.5 | |
| 20260906104114 | -17 | 0 | 1.6 | 3.2 | 0.00 | 0.00 | 0.00 | 1017.6 | |
| 20260906103612 | -17 | 21 | 0.0 | 3.2 | 0.00 | 0.00 | 0.00 | 1017.7 | |
| 20260906103108 | -17 | 25 | 1.6 | 3.2 | 0.00 | 0.00 | 0.00 | 1017.7 | |
| 20260906102607 | -17 | 2 | 0.0 | 0.0 | 0.00 | 0.00 | 0.00 | 1017.6 | |
| 20260906102102 | -17 | 12 | 0.0 | 0.0 | 0.00 | 0.00 | 0.00 | 1017.9 | |
| 20260906101557 | -17 | 354 | 0.0 | 0.0 | 0.00 | 0.00 | 0.00 | 1017.9 | |
| 20260906101051 | -17 | 335 | 0.0 | 0.0 | 0.00 | 0.00 | 0.00 | 1017.7 | |
| 20260906100547 | -17 | 1 | 0.0 | 0.0 | 0.00 | 0.00 | 0.00 | 1017.7 | |
| 20260906100047 | -17 | 345 | 0.0 | 0.0 | 0.00 | 0.00 | 0.00 | 1017.7 | |
| 20260906095542 | -17 | 16 | 1.6 | 3.2 | 0.00 | 0.00 | 0.00 | 1017.5 | |
| 20260906095037 | -17 | 4 | 0.0 | 0.0 | 0.00 | 0.00 | 0.00 | 1017.8 | |
| 20260906094536 | -17 | 358 | 0.0 | 1.6 | 0.00 | 0.00 | 0.00 | 1017.8 | |
| 20260906094032 | -17 | 331 | 0.0 | 0.0 | 0.00 | 0.00 | 0.00 | 1017.8 | |
| 20260906093528 | -17 | 341 | 0.0 | 0.0 | 0.00 | 0.00 | 0.00 | 1017.5 | |
| 20260906093022 | -17 | 5 | 0.0 | 1.6 | 0.00 | 0.00 | 0.00 | 1017.8 | |
| 20260906092517 | -17 | 26 | 0.0 | 0.0 | 0.00 | 0.00 | 0.00 | 1017.8 | |
| 20260906092013 | -17 | 2 | 0.0 | 0.0 | 0.00 | 0.00 | 0.00 | 1017.4 | |
| 20260906091508 | -17 | 29 | 0.0 | 1.6 | 0.00 | 0.00 | 0.00 | 1017.6 | |
| 20260906091004 | -17 | 8 | 3.2 | 3.2 | 0.00 | 0.00 | 0.00 | 1017.5 | |
| 20260906090459 | -17 | 329 | 0.0 | 3.2 | 0.00 | 0.00 | 0.00 | 1017.6 | |
| 20260906085958 | -17 | 4 | 0.0 | 0.0 | 0.00 | 0.00 | 0.00 | 1017.5 | |
| 20260906085458 | 13 | 12 | 0.0 | 3.2 | 0.00 | 0.00 | 0.00 | 85 | 1017.5 |
| 20260906084957 | -17 | 14 | 0.0 | 3.2 | 0.00 | 0.00 | 0.00 | 1017.6 | |
| 20260906084452 | -17 | 339 | 0.0 | 0.0 | 0.00 | 0.00 | 0.00 | 1017.5 | |
| 20260906083951 | 13 | 327 | 0.0 | 0.0 | 0.00 | 0.00 | 0.00 | 87 | 1017.5 |
| 20260906083447 | 13 | 343 | 0.0 | 0.0 | 0.00 | 0.00 | 0.00 | 87 | 1017.5 |
| 20260906082946 | 13 | 332 | 0.0 | 1.6 | 0.00 | 0.00 | 0.00 | 88 | 1017.8 |
| 20260906082442 | 13 | 331 | 1.6 | 4.8 | 0.00 | 0.00 | 0.00 | 88 | 1017.7 |
| 20260906081938 | 13 | 342 | 9.7 | 16.1 | 0.00 | 0.00 | 0.00 | 87 | 1017.8 |
| 20260906081432 | -17 | 351 | 3.2 | 6.4 | 0.00 | 0.00 | 0.00 | 1017.9 | |
| 20260906080929 | 13 | 338 | 8.0 | 16.1 | 0.00 | 0.00 | 0.00 | 89 | 1018.2 |
| 20260906080425 | 13 | 316 | 3.2 | 4.8 | 0.00 | 0.00 | 0.00 | 87 | 1018.3 |
| 20260906075924 | 13 | 349 | 17.7 | 22.5 | 0.00 | 0.00 | 0.00 | 87 | 1018.4 |
| 20260906075420 | 13 | 325 | 1.6 | 3.2 | 0.00 | 0.00 | 0.00 | 88 | 1018.4 |
| 20260906074914 | 13 | 326 | 1.6 | 3.2 | 0.00 | 0.00 | 0.00 | 88 | 1018.7 |
| 20260906074408 | 13 | 312 | 3.2 | 6.4 | 0.00 | 0.00 | 0.00 | 88 | 1018.9 |
| 20260906073907 | 13 | 348 | 6.4 | 12.9 | 0.00 | 0.00 | 0.00 | 88 | 1018.9 |
| 20260906073402 | 13 | 331 | 3.2 | 4.8 | 0.00 | 0.00 | 0.00 | 90 | 1019.0 |
| 20260906072859 | 13 | 297 | 0.0 | 0.0 | 0.00 | 0.00 | 0.00 | 89 | 1019.2 |
| 20260906072354 | 13 | 241 | 0.0 | 0.0 | 0.00 | 0.00 | 0.00 | 89 | 1019.5 |
| 20260906071844 | 13 | 268 | 0.0 | 0.0 | 0.00 | 0.00 | 0.00 | 89 | 1019.3 |
| 20260906071340 | 13 | 271 | 0.0 | 0.0 | 0.00 | 0.00 | 0.00 | 89 | 1019.4 |
| 20260906070836 | 13 | 282 | 0.0 | 0.0 | 0.00 | 0.00 | 0.00 | 90 | 1019.3 |
| 20260906070331 | 13 | 292 | 0.0 | 0.0 | 0.00 | 0.00 | 0.00 | 89 | 1019.3 |
| 20260906065826 | 13 | 290 | 0.0 | 1.6 | 0.00 | 0.00 | 0.00 | 89 | 1019.0 |
| 20260906065320 | 13 | 279 | 1.6 | 3.2 | 0.00 | 0.00 | 0.00 | 88 | 1019.1 |
| 20260906064816 | 13 | 277 | 1.6 | 4.8 | 0.00 | 0.00 | 0.00 | 88 | 1019.3 |
| 20260906064312 | -17 | 258 | 0.0 | 0.0 | 0.00 | 0.00 | 0.00 | 1019.3 | |
| 20260906063806 | -17 | 284 | 0.0 | 0.0 | 0.00 | 0.00 | 0.00 | 1019.3 | |
| 20260906063302 | -17 | 326 | 0.0 | 0.0 | 0.00 | 0.00 | 0.00 | 1019.2 | |
| 20260906062757 | -17 | 336 | 1.6 | 3.2 | 0.00 | 0.00 | 0.00 | 1019.1 | |
| 20260906062256 | 14 | 325 | 0.0 | 0.0 | 0.00 | 0.00 | 0.00 | 82 | 1018.9 |
| 20260906061752 | -17 | 323 | 4.8 | 11.3 | 0.00 | 0.00 | 0.00 | 1019.0 | |
| 20260906061248 | -17 | 346 | 0.0 | 0.0 | 0.00 | 0.00 | 0.00 | 1018.9 | |
| 20260906060743 | -17 | 25 | 6.4 | 11.3 | 0.00 | 0.00 | 0.00 | 1018.8 | |
| 20260906060241 | 15 | 26 | 0.0 | 1.6 | 0.00 | 0.00 | 0.00 | 81 | 1019.0 |
| 20260906055736 | -17 | 347 | 3.2 | 6.4 | 0.00 | 0.56 | 0.56 | 1019.0 | |
| 20260906055231 | -17 | 313 | 8.0 | 14.5 | 0.00 | 0.56 | 0.56 | 1019.0 | |
| 20260906054726 | 14 | 326 | 12.9 | 16.1 | 0.00 | 0.56 | 0.56 | 85 | 1018.9 |
| 20260906054221 | -17 | 338 | 0.0 | 0.0 | 0.00 | 0.56 | 0.56 | 1019.2 | |
| 20260906053718 | -17 | 343 | 0.0 | 0.0 | 0.00 | 0.56 | 0.56 | 1019.4 | |
| 20260906053213 | -17 | 346 | 1.6 | 1.6 | 0.00 | 0.56 | 0.56 | 1019.5 | |
| 20260906052708 | -17 | 331 | 1.6 | 3.2 | 0.00 | 0.56 | 0.56 | 1019.8 | |
| 20260906052205 | -17 | 309 | 0.0 | 0.0 | 0.00 | 0.56 | 0.56 | 1019.9 | |
| 20260906051701 | -17 | 252 | 3.2 | 4.8 | 0.00 | 0.56 | 0.56 | 1020.3 | |
| 20260906051200 | -17 | 287 | 0.0 | 0.0 | 0.00 | 0.56 | 0.56 | 1019.5 | |
| 20260906050656 | -17 | 19 | 0.0 | 1.6 | 0.00 | 0.56 | 0.56 | 1019.0 | |
| 20260906050151 | -17 | 328 | 4.8 | 11.3 | 0.00 | 0.56 | 0.56 | 1018.4 | |
| 20260906045649 | -17 | 342 | 1.6 | 3.2 | 0.00 | 0.56 | 0.56 | 1018.6 | |
| 20260906045145 | -17 | 338 | 4.8 | 6.4 | 0.00 | 0.56 | 0.56 | 1018.4 | |
| 20260906044641 | -17 | 290 | 1.6 | 4.8 | 0.00 | 0.56 | 0.56 | 1018.9 | |
| 20260906044136 | -17 | 299 | 3.2 | 6.4 | 0.00 | 0.56 | 0.56 | 1018.8 | |
| 20260906043632 | -17 | 321 | 1.6 | 6.4 | 0.00 | 0.56 | 0.56 | 1018.8 | |
| 20260906043127 | -17 | 322 | 0.0 | 0.0 | 0.00 | 0.56 | 0.56 | 1019.0 | |
| 20260906042627 | -17 | 316 | 0.0 | 0.0 | 0.00 | 0.56 | 0.56 | 1019.2 | |
| 20260906042122 | -17 | 317 | 0.0 | 0.0 | 0.00 | 0.56 | 0.56 | 1018.9 | |
| 20260906041618 | -17 | 338 | 1.6 | 3.2 | 0.00 | 0.56 | 0.56 | 1019.1 | |
| 20260906041117 | -17 | 350 | 9.7 | 14.5 | 0.00 | 0.56 | 0.56 | 1018.8 | |
| 20260906040613 | -17 | 318 | 0.0 | 1.6 | 0.00 | 0.56 | 0.56 | 1018.8 | |
| 20260906040109 | -17 | 311 | 0.0 | 0.0 | 0.00 | 0.56 | 0.56 | 1019.0 | |
| 20260906035604 | -17 | 346 | 11.3 | 14.5 | 0.00 | 0.56 | 0.56 | 1018.2 | |
| 20260906035059 | -17 | 329 | 0.0 | 0.0 | 0.00 | 0.56 | 0.56 | 1018.0 | |
| 20260906034559 | -17 | 320 | 1.6 | 3.2 | 0.00 | 0.56 | 0.56 | 1018.1 | |
| 20260906034055 | -17 | 328 | 3.2 | 6.4 | 0.00 | 0.56 | 0.56 | 1017.7 | |
| 20260906033550 | 15 | 322 | 0.0 | 0.0 | 0.00 | 0.56 | 0.56 | 87 | 1017.8 |
| 20260906033045 | 14 | 332 | 0.0 | 0.0 | 0.00 | 0.56 | 0.56 | 86 | 1017.8 |
| 20260906032542 | 14 | 345 | 0.0 | 0.0 | 0.00 | 0.56 | 0.56 | 86 | 1017.7 |
| 20260906032042 | 15 | 345 | 0.0 | 0.0 | 0.00 | 0.56 | 0.56 | 85 | 1017.8 |
| 20260906031537 | 15 | 347 | 9.7 | 16.1 | 0.00 | 0.56 | 0.56 | 83 | 1017.6 |
| 20260906031033 | 15 | 342 | 1.6 | 6.4 | 0.00 | 0.56 | 0.56 | 85 | 1018.0 |
| 20260906030532 | 14 | 325 | 0.0 | 1.6 | 0.00 | 0.56 | 0.56 | 87 | 1017.9 |
| 20260906030032 | 15 | 2 | 0.0 | 0.0 | 0.00 | 0.56 | 0.56 | 85 | 1018.1 |
| 20260906025532 | 15 | 316 | 0.0 | 0.0 | 0.00 | 0.56 | 0.56 | 84 | 1017.6 |
| 20260906025030 | -17 | 323 | 6.4 | 9.7 | 0.30 | 0.56 | 0.56 | 1017.8 | |
| 20260906024525 | 15 | 338 | 0.0 | 0.0 | 2.16 | 0.56 | 0.56 | 82 | 1018.0 |
| 20260906024025 | 16 | 344 | 4.8 | 6.4 | 1.85 | 0.51 | 0.51 | 81 | 1017.4 |
| 20260906023521 | 17 | 332 | 0.0 | 1.6 | 0.00 | 0.20 | 0.20 | 63 | 1018.3 |
| 20260906023016 | 17 | 254 | 4.8 | 9.7 | 0.00 | 0.20 | 0.20 | 63 | 1018.9 |
| 20260906022512 | -17 | 287 | 3.2 | 3.2 | 0.00 | 0.20 | 0.20 | 1017.7 | |
| 20260906022007 | 17 | 309 | 12.9 | 14.5 | 0.00 | 0.20 | 0.20 | 63 | 1016.7 |
| 20260906021502 | 17 | 327 | 6.4 | 9.7 | 0.00 | 0.20 | 0.20 | 63 | 1016.4 |
| 20260906020956 | 17 | 320 | 6.4 | 11.3 | 0.00 | 0.20 | 0.20 | 63 | 1016.1 |
| 20260906020450 | 17 | 357 | 8.0 | 9.7 | 0.00 | 0.20 | 0.20 | 63 | 1016.0 |
| 20260906015949 | 17 | 335 | 6.4 | 12.9 | 0.00 | 0.20 | 0.20 | 62 | 1016.4 |
| 20260906015449 | 17 | 335 | 0.0 | 1.6 | 0.00 | 0.20 | 0.20 | 62 | 1016.5 |
| 20260906014949 | 17 | 326 | 3.2 | 12.9 | 0.00 | 0.20 | 0.20 | 62 | 1016.3 |
| 20260906014449 | 17 | 347 | 0.0 | 1.6 | 0.00 | 0.20 | 0.20 | 61 | 1016.4 |
| 20260906013945 | 17 | 5 | 0.0 | 1.6 | 0.00 | 0.20 | 0.20 | 61 | 1016.4 |
| 20260906013440 | 18 | 318 | 0.0 | 0.0 | 0.00 | 0.20 | 0.20 | 60 | 1016.5 |
| 20260906012936 | 18 | 315 | 0.0 | 1.6 | 0.00 | 0.20 | 0.20 | 60 | 1016.3 |
| 20260906012431 | 18 | 321 | 0.0 | 0.0 | 0.00 | 0.20 | 0.20 | 59 | 1016.5 |
| 20260906011930 | 18 | 344 | 0.0 | 0.0 | 0.00 | 0.20 | 0.20 | 59 | 1016.4 |
| 20260906011426 | 18 | 317 | 0.0 | 1.6 | 0.00 | 0.20 | 0.20 | 58 | 1016.1 |
| 20260906010921 | 18 | 350 | 1.6 | 3.2 | 0.00 | 0.20 | 0.20 | 57 | 1016.5 |
| 20260906010416 | 19 | 329 | 0.0 | 3.2 | 0.00 | 0.20 | 0.20 | 56 | 1016.5 |
| 20260906005912 | 19 | 349 | 0.0 | 1.6 | 0.00 | 0.20 | 0.20 | 55 | 1016.3 |
| 20260906005412 | -17 | 20 | 0.0 | 1.6 | 0.00 | 0.20 | 0.20 | 1016.3 | |
| 20260906004910 | 20 | 333 | 0.0 | 0.0 | 0.00 | 0.20 | 0.20 | 52 | 1016.5 |
| 20260906004404 | 20 | 329 | 0.0 | 0.0 | 0.00 | 0.20 | 0.20 | 52 | 1016.3 |
| 20260906003900 | 21 | 330 | 3.2 | 11.3 | 0.00 | 0.20 | 0.20 | 51 | 1016.4 |
| 20260906003355 | 20 | 358 | 3.2 | 9.7 | 0.00 | 0.20 | 0.20 | 50 | 1016.3 |
| 20260906002851 | 20 | 328 | 1.6 | 6.4 | 0.00 | 0.20 | 0.20 | 51 | 1016.5 |
| 20260906002350 | 20 | 315 | 1.6 | 6.4 | 0.00 | 0.20 | 0.20 | 51 | 1016.3 |
| 20260906001846 | 20 | 336 | 0.0 | 0.0 | 0.00 | 0.20 | 0.20 | 51 | 1016.3 |
| 20260906001341 | 21 | 343 | 0.0 | 0.0 | 0.00 | 0.20 | 0.20 | 50 | 1016.7 |
| 20260906000837 | 22 | 327 | 16.1 | 20.9 | 0.00 | 0.20 | 0.20 | 48 | 1016.6 |
| 20260906000336 | 22 | 359 | 0.0 | 0.0 | 0.00 | 0.20 | 0.20 | 46 | 1017.0 |
| 20260905235836 | 22 | 343 | 1.6 | 3.2 | 0.00 | 0.20 | 0.20 | 46 | 1016.6 |
| 20260905235331 | 22 | 342 | 0.0 | 0.0 | 0.00 | 0.20 | 0.20 | 44 | 1016.8 |